sensor_id;sensor_type;location;lat;lon;timestamp;pressure;altitude;pressure_sealevel;temperature
63220;BMP180;49320;52.512;13.448;2023-03-01T00:01:38;102655.00;;;7.90
63220;BMP180;49320;52.512;13.448;2023-03-01T00:04:05;102660.00;;;7.90
63220;BMP180;49320;52.512;13.448;2023-03-01T00:06:32;102657.00;;;7.90
63220;BMP180;49320;52.512;13.448;2023-03-01T00:08:59;102646.00;;;7.90
63220;BMP180;49320;52.512;13.448;2023-03-01T00:11:29;102648.00;;;7.90
63220;BMP180;49320;52.512;13.448;2023-03-01T00:13:59;102642.00;;;7.90
63220;BMP180;49320;52.512;13.448;2023-03-01T00:16:37;102645.00;;;7.90
63220;BMP180;49320;52.512;13.448;2023-03-01T00:19:13;102633.00;;;7.80
63220;BMP180;49320;52.512;13.448;2023-03-01T00:21:40;102629.00;;;7.80
63220;BMP180;49320;52.512;13.448;2023-03-01T00:24:08;102627.00;;;7.80
63220;BMP180;49320;52.512;13.448;2023-03-01T00:26:35;102624.00;;;7.80
63220;BMP180;49320;52.512;13.448;2023-03-01T00:29:02;102628.00;;;7.80
63220;BMP180;49320;52.512;13.448;2023-03-01T00:31:31;102629.00;;;7.80
63220;BMP180;49320;52.512;13.448;2023-03-01T00:34:03;102624.00;;;7.80
63220;BMP180;49320;52.512;13.448;2023-03-01T00:36:35;102629.00;;;7.80
63220;BMP180;49320;52.512;13.448;2023-03-01T00:39:05;102632.00;;;7.80
63220;BMP180;49320;52.512;13.448;2023-03-01T00:41:32;102633.00;;;7.80
63220;BMP180;49320;52.512;13.448;2023-03-01T00:44:01;102628.00;;;7.80
63220;BMP180;49320;52.512;13.448;2023-03-01T00:46:28;102619.00;;;7.80
63220;BMP180;49320;52.512;13.448;2023-03-01T00:48:57;102622.00;;;7.80
63220;BMP180;49320;52.512;13.448;2023-03-01T00:51:27;102612.00;;;7.80
63220;BMP180;49320;52.512;13.448;2023-03-01T00:53:56;102634.00;;;7.80
63220;BMP180;49320;52.512;13.448;2023-03-01T00:56:24;102622.00;;;7.70
63220;BMP180;49320;52.512;13.448;2023-03-01T00:58:50;102626.00;;;7.70
63220;BMP180;49320;52.512;13.448;2023-03-01T01:01:27;102623.00;;;7.70
63220;BMP180;49320;52.512;13.448;2023-03-01T01:04:10;102613.00;;;7.70
63220;BMP180;49320;52.512;13.448;2023-03-01T01:06:46;102618.00;;;7.70
63220;BMP180;49320;52.512;13.448;2023-03-01T01:09:17;102606.00;;;7.70
63220;BMP180;49320;52.512;13.448;2023-03-01T01:11:50;102604.00;;;7.70
63220;BMP180;49320;52.512;13.448;2023-03-01T01:14:18;102603.00;;;7.70
63220;BMP180;49320;52.512;13.448;2023-03-01T01:16:45;102597.00;;;7.70
63220;BMP180;49320;52.512;13.448;2023-03-01T01:19:13;102595.00;;;7.70
63220;BMP180;49320;52.512;13.448;2023-03-01T01:21:40;102606.00;;;7.60
63220;BMP180;49320;52.512;13.448;2023-03-01T01:24:09;102586.00;;;7.60
63220;BMP180;49320;52.512;13.448;2023-03-01T01:26:37;102593.00;;;7.60
63220;BMP180;49320;52.512;13.448;2023-03-01T01:29:05;102588.00;;;7.50
63220;BMP180;49320;52.512;13.448;2023-03-01T01:31:34;102575.00;;;7.50
63220;BMP180;49320;52.512;13.448;2023-03-01T01:34:03;102579.00;;;7.50
63220;BMP180;49320;52.512;13.448;2023-03-01T01:36:32;102571.00;;;7.50
63220;BMP180;49320;52.512;13.448;2023-03-01T01:38:59;102567.00;;;7.50
63220;BMP180;49320;52.512;13.448;2023-03-01T01:41:28;102572.00;;;7.40
63220;BMP180;49320;52.512;13.448;2023-03-01T01:44:24;102565.00;;;7.50
63220;BMP180;49320;52.512;13.448;2023-03-01T01:47:06;102576.00;;;7.40
63220;BMP180;49320;52.512;13.448;2023-03-01T01:49:42;102558.00;;;7.40
63220;BMP180;49320;52.512;13.448;2023-03-01T01:52:26;102563.00;;;7.40
63220;BMP180;49320;52.512;13.448;2023-03-01T01:55:05;102574.00;;;7.40
63220;BMP180;49320;52.512;13.448;2023-03-01T01:57:40;102574.00;;;7.40
63220;BMP180;49320;52.512;13.448;2023-03-01T02:00:18;102563.00;;;7.30
63220;BMP180;49320;52.512;13.448;2023-03-01T02:02:49;102579.00;;;7.30
63220;BMP180;49320;52.512;13.448;2023-03-01T02:05:31;102580.00;;;7.30
63220;BMP180;49320;52.512;13.448;2023-03-01T02:08:00;102579.00;;;7.30
63220;BMP180;49320;52.512;13.448;2023-03-01T02:10:29;102593.00;;;7.30
63220;BMP180;49320;52.512;13.448;2023-03-01T02:12:57;102597.00;;;7.30
63220;BMP180;49320;52.512;13.448;2023-03-01T02:15:24;102596.00;;;7.30
63220;BMP180;49320;52.512;13.448;2023-03-01T02:17:54;102590.00;;;7.20
63220;BMP180;49320;52.512;13.448;2023-03-01T02:20:33;102579.00;;;7.30
63220;BMP180;49320;52.512;13.448;2023-03-01T02:23:01;102582.00;;;7.20
63220;BMP180;49320;52.512;13.448;2023-03-01T02:25:57;102582.00;;;7.30
63220;BMP180;49320;52.512;13.448;2023-03-01T02:28:26;102584.00;;;7.20
63220;BMP180;49320;52.512;13.448;2023-03-01T02:30:53;102585.00;;;7.20
63220;BMP180;49320;52.512;13.448;2023-03-01T02:33:41;102582.00;;;7.20
63220;BMP180;49320;52.512;13.448;2023-03-01T02:36:17;102594.00;;;7.20
63220;BMP180;49320;52.512;13.448;2023-03-01T02:38:47;102589.00;;;7.20
63220;BMP180;49320;52.512;13.448;2023-03-01T02:41:17;102586.00;;;7.20
63220;BMP180;49320;52.512;13.448;2023-03-01T02:43:46;102579.00;;;7.20
63220;BMP180;49320;52.512;13.448;2023-03-01T02:46:20;102580.00;;;7.20
63220;BMP180;49320;52.512;13.448;2023-03-01T02:48:54;102587.00;;;7.20
63220;BMP180;49320;52.512;13.448;2023-03-01T02:51:54;102587.00;;;7.20
63220;BMP180;49320;52.512;13.448;2023-03-01T02:54:32;102578.00;;;7.20
63220;BMP180;49320;52.512;13.448;2023-03-01T02:57:00;102572.00;;;7.20
63220;BMP180;49320;52.512;13.448;2023-03-01T02:59:33;102569.00;;;7.20
63220;BMP180;49320;52.512;13.448;2023-03-01T03:02:07;102566.00;;;7.10
63220;BMP180;49320;52.512;13.448;2023-03-01T03:04:34;102559.00;;;7.10
63220;BMP180;49320;52.512;13.448;2023-03-01T03:07:01;102556.00;;;7.10
63220;BMP180;49320;52.512;13.448;2023-03-01T03:09:28;102558.00;;;7.10
63220;BMP180;49320;52.512;13.448;2023-03-01T03:11:54;102556.00;;;7.10
63220;BMP180;49320;52.512;13.448;2023-03-01T03:14:21;102553.00;;;7.00
63220;BMP180;49320;52.512;13.448;2023-03-01T03:16:49;102553.00;;;7.00
63220;BMP180;49320;52.512;13.448;2023-03-01T03:19:18;102563.00;;;7.00
63220;BMP180;49320;52.512;13.448;2023-03-01T03:21:46;102551.00;;;7.00
63220;BMP180;49320;52.512;13.448;2023-03-01T03:24:13;102560.00;;;7.00
63220;BMP180;49320;52.512;13.448;2023-03-01T03:26:40;102554.00;;;7.00
63220;BMP180;49320;52.512;13.448;2023-03-01T03:29:07;102557.00;;;7.00
63220;BMP180;49320;52.512;13.448;2023-03-01T03:31:34;102549.00;;;7.00
63220;BMP180;49320;52.512;13.448;2023-03-01T03:34:01;102547.00;;;6.90
63220;BMP180;49320;52.512;13.448;2023-03-01T03:36:27;102553.00;;;6.90
63220;BMP180;49320;52.512;13.448;2023-03-01T03:38:54;102541.00;;;6.90
63220;BMP180;49320;52.512;13.448;2023-03-01T03:41:21;102537.00;;;6.90
63220;BMP180;49320;52.512;13.448;2023-03-01T03:43:48;102543.00;;;6.90
63220;BMP180;49320;52.512;13.448;2023-03-01T03:46:15;102536.00;;;6.80
63220;BMP180;49320;52.512;13.448;2023-03-01T03:48:45;102542.00;;;6.80
63220;BMP180;49320;52.512;13.448;2023-03-01T03:51:15;102547.00;;;6.80
63220;BMP180;49320;52.512;13.448;2023-03-01T03:53:43;102526.00;;;6.80
63220;BMP180;49320;52.512;13.448;2023-03-01T03:56:11;102523.00;;;6.70
63220;BMP180;49320;52.512;13.448;2023-03-01T03:58:38;102517.00;;;6.70
63220;BMP180;49320;52.512;13.448;2023-03-01T04:01:06;102522.00;;;6.70
63220;BMP180;49320;52.512;13.448;2023-03-01T04:03:33;102520.00;;;6.70
63220;BMP180;49320;52.512;13.448;2023-03-01T04:06:02;102518.00;;;6.70
63220;BMP180;49320;52.512;13.448;2023-03-01T04:08:30;102520.00;;;6.70
63220;BMP180;49320;52.512;13.448;2023-03-01T04:11:01;102521.00;;;6.70
63220;BMP180;49320;52.512;13.448;2023-03-01T04:13:47;102527.00;;;6.70
63220;BMP180;49320;52.512;13.448;2023-03-01T04:16:14;102519.00;;;6.60
63220;BMP180;49320;52.512;13.448;2023-03-01T04:18:41;102530.00;;;6.60
63220;BMP180;49320;52.512;13.448;2023-03-01T04:21:08;102540.00;;;6.70
63220;BMP180;49320;52.512;13.448;2023-03-01T04:23:35;102534.00;;;6.60
63220;BMP180;49320;52.512;13.448;2023-03-01T04:26:03;102531.00;;;6.60
63220;BMP180;49320;52.512;13.448;2023-03-01T04:28:34;102524.00;;;6.60
63220;BMP180;49320;52.512;13.448;2023-03-01T04:31:06;102525.00;;;6.60
63220;BMP180;49320;52.512;13.448;2023-03-01T04:33:43;102520.00;;;6.60
63220;BMP180;49320;52.512;13.448;2023-03-01T04:36:14;102522.00;;;6.60
63220;BMP180;49320;52.512;13.448;2023-03-01T04:38:41;102518.00;;;6.60
63220;BMP180;49320;52.512;13.448;2023-03-01T04:41:10;102510.00;;;6.60
63220;BMP180;49320;52.512;13.448;2023-03-01T04:43:37;102519.00;;;6.60
63220;BMP180;49320;52.512;13.448;2023-03-01T04:46:08;102513.00;;;6.60
63220;BMP180;49320;52.512;13.448;2023-03-01T04:48:38;102513.00;;;6.50
63220;BMP180;49320;52.512;13.448;2023-03-01T04:51:06;102520.00;;;6.50
63220;BMP180;49320;52.512;13.448;2023-03-01T04:53:34;102519.00;;;6.50
63220;BMP180;49320;52.512;13.448;2023-03-01T04:56:05;102509.00;;;6.50
63220;BMP180;49320;52.512;13.448;2023-03-01T04:58:32;102518.00;;;6.50
63220;BMP180;49320;52.512;13.448;2023-03-01T05:00:59;102524.00;;;6.50
63220;BMP180;49320;52.512;13.448;2023-03-01T05:03:26;102513.00;;;6.50
63220;BMP180;49320;52.512;13.448;2023-03-01T05:05:53;102513.00;;;6.50
63220;BMP180;49320;52.512;13.448;2023-03-01T05:08:20;102509.00;;;6.50
63220;BMP180;49320;52.512;13.448;2023-03-01T05:10:52;102513.00;;;6.50
63220;BMP180;49320;52.512;13.448;2023-03-01T05:13:20;102513.00;;;6.40
63220;BMP180;49320;52.512;13.448;2023-03-01T05:15:54;102519.00;;;6.40
63220;BMP180;49320;52.512;13.448;2023-03-01T05:18:21;102509.00;;;6.40
63220;BMP180;49320;52.512;13.448;2023-03-01T05:20:53;102504.00;;;6.40
63220;BMP180;49320;52.512;13.448;2023-03-01T05:23:23;102513.00;;;6.40
63220;BMP180;49320;52.512;13.448;2023-03-01T05:25:49;102514.00;;;6.40
63220;BMP180;49320;52.512;13.448;2023-03-01T05:28:20;102512.00;;;6.40
63220;BMP180;49320;52.512;13.448;2023-03-01T05:30:47;102507.00;;;6.40
63220;BMP180;49320;52.512;13.448;2023-03-01T05:33:14;102507.00;;;6.30
63220;BMP180;49320;52.512;13.448;2023-03-01T05:35:44;102500.00;;;6.30
63220;BMP180;49320;52.512;13.448;2023-03-01T05:38:12;102507.00;;;6.30
63220;BMP180;49320;52.512;13.448;2023-03-01T05:40:42;102510.00;;;6.30
63220;BMP180;49320;52.512;13.448;2023-03-01T05:43:11;102507.00;;;6.30
63220;BMP180;49320;52.512;13.448;2023-03-01T05:45:39;102506.00;;;6.30
63220;BMP180;49320;52.512;13.448;2023-03-01T05:48:09;102495.00;;;6.30
63220;BMP180;49320;52.512;13.448;2023-03-01T05:50:40;102501.00;;;6.30
63220;BMP180;49320;52.512;13.448;2023-03-01T05:53:13;102500.00;;;6.30
63220;BMP180;49320;52.512;13.448;2023-03-01T05:55:41;102503.00;;;6.30
63220;BMP180;49320;52.512;13.448;2023-03-01T05:58:16;102512.00;;;6.30
63220;BMP180;49320;52.512;13.448;2023-03-01T06:00:46;102503.00;;;6.30
63220;BMP180;49320;52.512;13.448;2023-03-01T06:03:16;102500.00;;;6.30
63220;BMP180;49320;52.512;13.448;2023-03-01T06:05:44;102508.00;;;6.30
63220;BMP180;49320;52.512;13.448;2023-03-01T06:08:12;102517.00;;;6.30
63220;BMP180;49320;52.512;13.448;2023-03-01T06:10:39;102508.00;;;6.30
63220;BMP180;49320;52.512;13.448;2023-03-01T06:13:07;102508.00;;;6.30
63220;BMP180;49320;52.512;13.448;2023-03-01T06:15:33;102510.00;;;6.30
63220;BMP180;49320;52.512;13.448;2023-03-01T06:18:00;102507.00;;;6.30
63220;BMP180;49320;52.512;13.448;2023-03-01T06:20:28;102510.00;;;6.40
63220;BMP180;49320;52.512;13.448;2023-03-01T06:22:58;102502.00;;;6.40
63220;BMP180;49320;52.512;13.448;2023-03-01T06:25:27;102498.00;;;6.50
63220;BMP180;49320;52.512;13.448;2023-03-01T06:27:55;102512.00;;;6.50
63220;BMP180;49320;52.512;13.448;2023-03-01T06:30:24;102504.00;;;6.50
63220;BMP180;49320;52.512;13.448;2023-03-01T06:32:52;102500.00;;;6.60
63220;BMP180;49320;52.512;13.448;2023-03-01T06:35:19;102499.00;;;6.60
63220;BMP180;49320;52.512;13.448;2023-03-01T06:37:48;102514.00;;;6.60
63220;BMP180;49320;52.512;13.448;2023-03-01T06:40:15;102510.00;;;6.70
63220;BMP180;49320;52.512;13.448;2023-03-01T06:42:48;102507.00;;;6.70
63220;BMP180;49320;52.512;13.448;2023-03-01T06:45:18;102518.00;;;6.80
63220;BMP180;49320;52.512;13.448;2023-03-01T06:47:45;102511.00;;;6.80
63220;BMP180;49320;52.512;13.448;2023-03-01T06:50:13;102513.00;;;6.90
63220;BMP180;49320;52.512;13.448;2023-03-01T06:52:41;102516.00;;;6.90
63220;BMP180;49320;52.512;13.448;2023-03-01T06:55:08;102516.00;;;7.00
63220;BMP180;49320;52.512;13.448;2023-03-01T06:57:35;102514.00;;;7.00
63220;BMP180;49320;52.512;13.448;2023-03-01T07:00:06;102520.00;;;7.10
63220;BMP180;49320;52.512;13.448;2023-03-01T07:02:33;102513.00;;;7.10
63220;BMP180;49320;52.512;13.448;2023-03-01T07:05:00;102524.00;;;7.20
63220;BMP180;49320;52.512;13.448;2023-03-01T07:07:27;102520.00;;;7.20
63220;BMP180;49320;52.512;13.448;2023-03-01T07:09:53;102530.00;;;7.30
63220;BMP180;49320;52.512;13.448;2023-03-01T07:12:20;102532.00;;;7.40
63220;BMP180;49320;52.512;13.448;2023-03-01T07:14:47;102529.00;;;7.40
63220;BMP180;49320;52.512;13.448;2023-03-01T07:17:14;102534.00;;;7.50
63220;BMP180;49320;52.512;13.448;2023-03-01T07:19:41;102514.00;;;7.50
63220;BMP180;49320;52.512;13.448;2023-03-01T07:22:07;102521.00;;;7.60
63220;BMP180;49320;52.512;13.448;2023-03-01T07:24:35;102521.00;;;7.70
63220;BMP180;49320;52.512;13.448;2023-03-01T07:27:02;102520.00;;;7.80
63220;BMP180;49320;52.512;13.448;2023-03-01T07:29:29;102519.00;;;7.80
63220;BMP180;49320;52.512;13.448;2023-03-01T07:31:56;102520.00;;;7.90
63220;BMP180;49320;52.512;13.448;2023-03-01T07:34:23;102524.00;;;8.00
63220;BMP180;49320;52.512;13.448;2023-03-01T07:36:50;102519.00;;;8.10
63220;BMP180;49320;52.512;13.448;2023-03-01T07:39:17;102514.00;;;8.20
63220;BMP180;49320;52.512;13.448;2023-03-01T07:41:45;102521.00;;;8.30
63220;BMP180;49320;52.512;13.448;2023-03-01T07:44:12;102523.00;;;8.40
63220;BMP180;49320;52.512;13.448;2023-03-01T07:46:39;102518.00;;;8.50
63220;BMP180;49320;52.512;13.448;2023-03-01T07:49:05;102524.00;;;8.60
63220;BMP180;49320;52.512;13.448;2023-03-01T07:51:34;102525.00;;;8.70
63220;BMP180;49320;52.512;13.448;2023-03-01T07:54:01;102517.00;;;8.70
63220;BMP180;49320;52.512;13.448;2023-03-01T07:56:28;102517.00;;;8.80
63220;BMP180;49320;52.512;13.448;2023-03-01T07:58:56;102515.00;;;8.90
63220;BMP180;49320;52.512;13.448;2023-03-01T08:01:23;102520.00;;;9.00
63220;BMP180;49320;52.512;13.448;2023-03-01T08:03:50;102524.00;;;9.10
63220;BMP180;49320;52.512;13.448;2023-03-01T08:06:18;102521.00;;;9.20
63220;BMP180;49320;52.512;13.448;2023-03-01T08:08:45;102522.00;;;9.20
63220;BMP180;49320;52.512;13.448;2023-03-01T08:11:14;102520.00;;;9.30
63220;BMP180;49320;52.512;13.448;2023-03-01T08:13:42;102509.00;;;9.40
63220;BMP180;49320;52.512;13.448;2023-03-01T08:16:15;102521.00;;;9.50
63220;BMP180;49320;52.512;13.448;2023-03-01T08:18:43;102509.00;;;9.60
63220;BMP180;49320;52.512;13.448;2023-03-01T08:21:16;102504.00;;;9.60
63220;BMP180;49320;52.512;13.448;2023-03-01T08:23:43;102512.00;;;9.60
63220;BMP180;49320;52.512;13.448;2023-03-01T08:26:15;102501.00;;;9.70
63220;BMP180;49320;52.512;13.448;2023-03-01T08:28:42;102503.00;;;9.70
63220;BMP180;49320;52.512;13.448;2023-03-01T08:31:32;102509.00;;;9.80
63220;BMP180;49320;52.512;13.448;2023-03-01T08:34:03;102496.00;;;9.80
63220;BMP180;49320;52.512;13.448;2023-03-01T08:36:37;102487.00;;;9.90
63220;BMP180;49320;52.512;13.448;2023-03-01T08:39:05;102497.00;;;10.00
63220;BMP180;49320;52.512;13.448;2023-03-01T08:41:33;102500.00;;;10.00
63220;BMP180;49320;52.512;13.448;2023-03-01T08:43:59;102493.00;;;10.10
63220;BMP180;49320;52.512;13.448;2023-03-01T08:46:29;102499.00;;;10.20
63220;BMP180;49320;52.512;13.448;2023-03-01T08:48:57;102500.00;;;10.30
63220;BMP180;49320;52.512;13.448;2023-03-01T08:51:25;102502.00;;;10.30
63220;BMP180;49320;52.512;13.448;2023-03-01T08:53:52;102495.00;;;10.40
63220;BMP180;49320;52.512;13.448;2023-03-01T08:56:20;102500.00;;;10.50
63220;BMP180;49320;52.512;13.448;2023-03-01T08:58:48;102492.00;;;10.50
63220;BMP180;49320;52.512;13.448;2023-03-01T09:01:18;102484.00;;;10.60
63220;BMP180;49320;52.512;13.448;2023-03-01T09:03:46;102493.00;;;10.70
63220;BMP180;49320;52.512;13.448;2023-03-01T09:06:14;102483.00;;;10.80
63220;BMP180;49320;52.512;13.448;2023-03-01T09:08:44;102483.00;;;10.80
63220;BMP180;49320;52.512;13.448;2023-03-01T09:11:16;102478.00;;;10.90
63220;BMP180;49320;52.512;13.448;2023-03-01T09:13:45;102478.00;;;11.00
63220;BMP180;49320;52.512;13.448;2023-03-01T09:16:17;102476.00;;;11.00
63220;BMP180;49320;52.512;13.448;2023-03-01T09:18:49;102483.00;;;11.10
63220;BMP180;49320;52.512;13.448;2023-03-01T09:21:18;102485.00;;;11.10
63220;BMP180;49320;52.512;13.448;2023-03-01T09:23:57;102484.00;;;11.10
63220;BMP180;49320;52.512;13.448;2023-03-01T09:26:25;102472.00;;;11.20
63220;BMP180;49320;52.512;13.448;2023-03-01T09:28:55;102478.00;;;11.20
63220;BMP180;49320;52.512;13.448;2023-03-01T09:31:24;102470.00;;;11.30
63220;BMP180;49320;52.512;13.448;2023-03-01T09:33:53;102466.00;;;11.30
63220;BMP180;49320;52.512;13.448;2023-03-01T09:36:24;102473.00;;;11.30
63220;BMP180;49320;52.512;13.448;2023-03-01T09:38:52;102475.00;;;11.40
63220;BMP180;49320;52.512;13.448;2023-03-01T09:41:48;102478.00;;;11.40
63220;BMP180;49320;52.512;13.448;2023-03-01T09:47:35;102471.00;;;11.50
63220;BMP180;49320;52.512;13.448;2023-03-01T09:50:15;102470.00;;;11.50
63220;BMP180;49320;52.512;13.448;2023-03-01T09:53:10;102474.00;;;11.60
63220;BMP180;49320;52.512;13.448;2023-03-01T09:58:41;102477.00;;;11.70
63220;BMP180;49320;52.512;13.448;2023-03-01T10:01:31;102480.00;;;11.80
63220;BMP180;49320;52.512;13.448;2023-03-01T10:05:09;102464.00;;;11.80
63220;BMP180;49320;52.512;13.448;2023-03-01T10:07:21;102472.00;;;11.90
63220;BMP180;49320;52.512;13.448;2023-03-01T10:09:49;102472.00;;;12.00
63220;BMP180;49320;52.512;13.448;2023-03-01T10:12:33;102470.00;;;12.00
63220;BMP180;49320;52.512;13.448;2023-03-01T10:15:13;102482.00;;;12.10
63220;BMP180;49320;52.512;13.448;2023-03-01T10:17:48;102485.00;;;12.10
63220;BMP180;49320;52.512;13.448;2023-03-01T10:20:21;102478.00;;;12.20
63220;BMP180;49320;52.512;13.448;2023-03-01T10:22:49;102474.00;;;12.20
63220;BMP180;49320;52.512;13.448;2023-03-01T10:25:50;102479.00;;;12.20
63220;BMP180;49320;52.512;13.448;2023-03-01T10:28:54;102469.00;;;12.30
63220;BMP180;49320;52.512;13.448;2023-03-01T10:31:26;102467.00;;;12.30
63220;BMP180;49320;52.512;13.448;2023-03-01T10:33:56;102456.00;;;12.30
63220;BMP180;49320;52.512;13.448;2023-03-01T10:36:24;102462.00;;;12.30
63220;BMP180;49320;52.512;13.448;2023-03-01T10:38:55;102462.00;;;12.30
63220;BMP180;49320;52.512;13.448;2023-03-01T10:41:26;102457.00;;;12.30
63220;BMP180;49320;52.512;13.448;2023-03-01T10:43:56;102461.00;;;12.30
63220;BMP180;49320;52.512;13.448;2023-03-01T10:46:36;102457.00;;;12.40
63220;BMP180;49320;52.512;13.448;2023-03-01T10:49:22;102451.00;;;12.40
63220;BMP180;49320;52.512;13.448;2023-03-01T10:51:51;102451.00;;;12.40
63220;BMP180;49320;52.512;13.448;2023-03-01T10:54:31;102445.00;;;12.40
63220;BMP180;49320;52.512;13.448;2023-03-01T10:57:02;102441.00;;;12.40
63220;BMP180;49320;52.512;13.448;2023-03-01T10:59:38;102436.00;;;12.50
63220;BMP180;49320;52.512;13.448;2023-03-01T11:02:28;102445.00;;;12.60
63220;BMP180;49320;52.512;13.448;2023-03-01T11:07:58;102433.00;;;12.60
63220;BMP180;49320;52.512;13.448;2023-03-01T11:10:36;102429.00;;;12.60
63220;BMP180;49320;52.512;13.448;2023-03-01T11:13:21;102425.00;;;12.70
63220;BMP180;49320;52.512;13.448;2023-03-01T11:16:07;102419.00;;;12.70
63220;BMP180;49320;52.512;13.448;2023-03-01T11:18:36;102416.00;;;12.80
63220;BMP180;49320;52.512;13.448;2023-03-01T11:21:15;102414.00;;;12.80
63220;BMP180;49320;52.512;13.448;2023-03-01T11:23:45;102412.00;;;12.90
63220;BMP180;49320;52.512;13.448;2023-03-01T11:26:14;102416.00;;;12.90
63220;BMP180;49320;52.512;13.448;2023-03-01T11:28:44;102417.00;;;13.00
63220;BMP180;49320;52.512;13.448;2023-03-01T11:31:14;102412.00;;;13.10
63220;BMP180;49320;52.512;13.448;2023-03-01T11:34:07;102405.00;;;13.20
63220;BMP180;49320;52.512;13.448;2023-03-01T11:36:58;102411.00;;;13.30
63220;BMP180;49320;52.512;13.448;2023-03-01T11:39:47;102407.00;;;13.30
63220;BMP180;49320;52.512;13.448;2023-03-01T11:42:24;102399.00;;;13.30
63220;BMP180;49320;52.512;13.448;2023-03-01T11:44:55;102399.00;;;13.40
63220;BMP180;49320;52.512;13.448;2023-03-01T11:50:44;102394.00;;;13.50
63220;BMP180;49320;52.512;13.448;2023-03-01T11:53:22;102396.00;;;13.50
63220;BMP180;49320;52.512;13.448;2023-03-01T12:02:12;102399.00;;;13.60
63220;BMP180;49320;52.512;13.448;2023-03-01T12:08:10;102398.00;;;13.70
63220;BMP180;49320;52.512;13.448;2023-03-01T12:11:39;102385.00;;;13.70
63220;BMP180;49320;52.512;13.448;2023-03-01T12:14:20;102382.00;;;13.80
63220;BMP180;49320;52.512;13.448;2023-03-01T12:23:15;102372.00;;;13.90
63220;BMP180;49320;52.512;13.448;2023-03-01T12:26:26;102375.00;;;14.00
63220;BMP180;49320;52.512;13.448;2023-03-01T12:29:20;102362.00;;;14.00
63220;BMP180;49320;52.512;13.448;2023-03-01T12:32:15;102353.00;;;14.10
63220;BMP180;49320;52.512;13.448;2023-03-01T12:35:10;102363.00;;;14.10
63220;BMP180;49320;52.512;13.448;2023-03-01T12:37:56;102340.00;;;14.10
63220;BMP180;49320;52.512;13.448;2023-03-01T12:40:59;102341.00;;;14.10
63220;BMP180;49320;52.512;13.448;2023-03-01T12:49:35;102343.00;;;14.20
63220;BMP180;49320;52.512;13.448;2023-03-01T12:52:37;102340.00;;;14.30
63220;BMP180;49320;52.512;13.448;2023-03-01T12:58:25;102330.00;;;14.40
63220;BMP180;49320;52.512;13.448;2023-03-01T13:01:51;102331.00;;;14.40
63220;BMP180;49320;52.512;13.448;2023-03-01T13:05:10;102330.00;;;14.40
63220;BMP180;49320;52.512;13.448;2023-03-01T13:08:01;102317.00;;;14.40
63220;BMP180;49320;52.512;13.448;2023-03-01T13:10:50;102321.00;;;14.40
63220;BMP180;49320;52.512;13.448;2023-03-01T13:13:27;102319.00;;;14.40
63220;BMP180;49320;52.512;13.448;2023-03-01T13:15:55;102320.00;;;14.40
63220;BMP180;49320;52.512;13.448;2023-03-01T13:20:52;102309.00;;;14.40
63220;BMP180;49320;52.512;13.448;2023-03-01T13:38:56;102293.00;;;14.40
63220;BMP180;49320;52.512;13.448;2023-03-01T13:44:36;102294.00;;;14.50
63220;BMP180;49320;52.512;13.448;2023-03-01T13:49:50;102283.00;;;14.60
63220;BMP180;49320;52.512;13.448;2023-03-01T13:52:58;102284.00;;;14.60
63220;BMP180;49320;52.512;13.448;2023-03-01T13:55:44;102276.00;;;14.60
63220;BMP180;49320;52.512;13.448;2023-03-01T13:58:26;102274.00;;;14.60
63220;BMP180;49320;52.512;13.448;2023-03-01T14:01:07;102279.00;;;14.60
63220;BMP180;49320;52.512;13.448;2023-03-01T14:03:46;102273.00;;;14.60
63220;BMP180;49320;52.512;13.448;2023-03-01T14:06:25;102265.00;;;14.60
63220;BMP180;49320;52.512;13.448;2023-03-01T14:09:17;102262.00;;;14.70
63220;BMP180;49320;52.512;13.448;2023-03-01T14:12:00;102261.00;;;14.70
63220;BMP180;49320;52.512;13.448;2023-03-01T14:15:14;102248.00;;;14.80
63220;BMP180;49320;52.512;13.448;2023-03-01T14:18:10;102257.00;;;14.80
63220;BMP180;49320;52.512;13.448;2023-03-01T14:20:43;102252.00;;;14.80
63220;BMP180;49320;52.512;13.448;2023-03-01T14:23:21;102245.00;;;14.90
63220;BMP180;49320;52.512;13.448;2023-03-01T14:25:57;102245.00;;;14.90
63220;BMP180;49320;52.512;13.448;2023-03-01T14:28:28;102237.00;;;14.90
63220;BMP180;49320;52.512;13.448;2023-03-01T14:30:58;102241.00;;;14.80
63220;BMP180;49320;52.512;13.448;2023-03-01T14:33:36;102232.00;;;14.80
63220;BMP180;49320;52.512;13.448;2023-03-01T14:36:11;102227.00;;;14.80
63220;BMP180;49320;52.512;13.448;2023-03-01T14:38:46;102235.00;;;14.80
63220;BMP180;49320;52.512;13.448;2023-03-01T14:41:21;102231.00;;;14.80
63220;BMP180;49320;52.512;13.448;2023-03-01T14:46:39;102225.00;;;14.90
63220;BMP180;49320;52.512;13.448;2023-03-01T14:49:16;102218.00;;;14.90
63220;BMP180;49320;52.512;13.448;2023-03-01T14:51:55;102218.00;;;14.90
63220;BMP180;49320;52.512;13.448;2023-03-01T14:54:39;102221.00;;;14.90
63220;BMP180;49320;52.512;13.448;2023-03-01T14:57:17;102223.00;;;15.00
63220;BMP180;49320;52.512;13.448;2023-03-01T14:59:44;102218.00;;;15.00
63220;BMP180;49320;52.512;13.448;2023-03-01T15:02:18;102213.00;;;15.00
63220;BMP180;49320;52.512;13.448;2023-03-01T15:04:57;102213.00;;;15.10
63220;BMP180;49320;52.512;13.448;2023-03-01T15:07:31;102215.00;;;15.10
63220;BMP180;49320;52.512;13.448;2023-03-01T15:09:59;102209.00;;;15.10
63220;BMP180;49320;52.512;13.448;2023-03-01T15:14:57;102213.00;;;15.10
63220;BMP180;49320;52.512;13.448;2023-03-01T15:17:36;102211.00;;;15.10
63220;BMP180;49320;52.512;13.448;2023-03-01T15:20:16;102219.00;;;15.20
63220;BMP180;49320;52.512;13.448;2023-03-01T15:22:45;102210.00;;;15.20
63220;BMP180;49320;52.512;13.448;2023-03-01T15:25:21;102215.00;;;15.20
63220;BMP180;49320;52.512;13.448;2023-03-01T15:27:52;102216.00;;;15.20
63220;BMP180;49320;52.512;13.448;2023-03-01T15:30:35;102217.00;;;15.20
63220;BMP180;49320;52.512;13.448;2023-03-01T15:33:29;102211.00;;;15.20